Bruk link Alternativ webside om du vil se statistikk,rapport,graf,analyse og mye mer.

Lynradar: storm image Ingen tordenbyger registrert..



Vårt webkamera mer informasjon My webcam


Kamera på Foreneset mer informasjon webcam on foreneset


Nedbørsradar  rain snow radar


Besøk vår andre værside:

Alternativ webside

iphone versjon

Nettbrett versjon

Foreneset
verstasjon



Ikke nødvendig med spesiell oppmerksomhet.    Det er ingen advarsler

Nære METAR rapporter

     
ENZV - Stavanger
oppdatert: 10-07-2020 16:50
Få Skyer  
Få Skyer  
   Vind: VNV 10.3 m/s
Vind: VNV 10.3 m/s
Temperatur: 15°C
Duggpunkt: 9°C
Fuktighet: 68%
Barometer: 1010 hPa
Skyer: Få Skyer
Sikt: mer enn 10 km
Skydetaljer: Få Skyer 762 m
ENZV 101450Z 30020KT 9999 FEW025 15/09 Q1010 NOSIG
ENHD - Haugesund
oppdatert: 10-07-2020 16:50
Delvis Skyet  
Delvis Skyet  
   Vind: NV 8.2 m/s
Vind: NV 8.2 m/s
Temperatur: 15°C
Duggpunkt: 8°C
Fuktighet: 63%
Barometer: 1010 hPa
Skyer: Delvis Skyet
Sikt: mer enn 10 km
Skydetaljer: Delvis Skyet 731.5 m
ENHD 101450Z 32016KT 9999 SCT024 15/08 Q1010
ENBR - Bergen
oppdatert: 10-07-2020 16:50
Delvis Skyet  
Delvis Skyet  
   Vind: NNV 6.7 m/s
Vind: NNV 6.7 m/s
Temperatur: 15°C
Duggpunkt: 9°C
Fuktighet: 68%
Barometer: 1010 hPa
Skyer: Delvis Skyet
Sikt: mer enn 10 km
Skydetaljer: Få Skyer 762 m,
Delvis Skyet 1066.8 m
ENBR 101450Z 33013KT 9999 FEW025 SCT035 15/09 Q1010 NOSIG RMK WIND 1200FT 31020G31KT
ENCN - Kristiansand
oppdatert: 10-07-2020 16:50
Nære Byger, For det meste skyet  
Nære Byger, For det meste skyet  
   Vind: NV 3.1 m/s
Vind: NV 3.1 m/s
Temperatur: 15°C
Duggpunkt: 9°C
Fuktighet: 68%
Barometer: 1008 hPa
Skyer: For det meste skyet
Sikt: mer enn 10 km
Skydetaljer: Få Skyer 670.6 m,
Få Skyer 914.4 m,
For det meste skyet 2011.7 m
ENCN 101450Z 32006KT 270V350 9999 VCSH FEW022 FEW030CB BKN066 15/09 Q1008
ENGM - Oslo
oppdatert: 10-07-2020 16:50
Nære Byger, Delvis Skyet  
Nære Byger, Delvis Skyet  
   Vind: Nord 3.1 m/s
Vind: Nord 3.1 m/s
Temperatur: 16°C
Duggpunkt: 7°C
Fuktighet: 55%
Barometer: 1007 hPa
Skyer: Delvis Skyet
Sikt: mer enn 10 km
Skydetaljer: Få Skyer 1493.5 m,
Delvis Skyet 2316.5 m
ENGM 101450Z 36006KT 340V040 9999 VCSH FEW049CB SCT076 16/07 Q1007 NOSIG
ENVA - Trondheim
oppdatert: 10-07-2020 16:50
Delvis Skyet  
Delvis Skyet  
   Vind: VSV 2.6 m/s
Vind: VSV 2.6 m/s
Temperatur: 17°C
Duggpunkt: 4°C
Fuktighet: 42%
Barometer: 1008 hPa
Skyer: Delvis Skyet
Sikt: mer enn 10 km
Skydetaljer: Få Skyer 1249.7 m,
Delvis Skyet 2072.6 m
ENVA 101450Z 25005KT 200V290 9999 FEW041 SCT068 17/04 Q1008 TEMPO SHRA RMK WIND 670FT 31003KT
    

Script utviklet av  Saratoga-weather.org Tilrettelagt for malen av  Weerstation Leuven

Du finner vår vær info også på:

UK Metoffice

European Weather Network

WeatherCloud

Weather Underground

Utstyr vi bruker:

Værstsjon
Davis VP2

Værprogram
Weather Display

Davis VP2

Weather Display